createdAt,value
2018-09-03T00:01:48.001Z,10.60
2018-09-03T00:04:16.489Z,12.03
2018-09-03T00:06:45.017Z,12.13
2018-09-03T00:09:13.548Z,11.90
2018-09-03T00:11:42.009Z,12.43
2018-09-03T00:14:10.481Z,13.40
2018-09-03T00:16:38.945Z,11.70
2018-09-03T00:19:07.529Z,12.17
2018-09-03T00:21:36.052Z,12.17
2018-09-03T00:24:04.522Z,12.37
2018-09-03T00:26:33.070Z,10.90
2018-09-03T00:29:01.637Z,13.20
2018-09-03T00:31:35.624Z,11.50
2018-09-03T00:34:09.473Z,11.60
2018-09-03T00:36:43.101Z,11.70
2018-09-03T00:40:20.581Z,11.27
2018-09-03T00:42:54.349Z,11.47
2018-09-03T00:45:27.938Z,11.70
2018-09-03T00:47:56.466Z,11.23
2018-09-03T00:50:24.994Z,11.90
2018-09-03T00:52:53.513Z,12.27
2018-09-03T00:55:22.070Z,10.93
2018-09-03T00:57:50.576Z,13.83
2018-09-03T01:00:19.065Z,12.97
2018-09-03T01:02:47.945Z,12.27
2018-09-03T01:05:16.425Z,14.13
2018-09-03T01:07:44.924Z,13.57
2018-09-03T01:10:13.446Z,11.73
2018-09-03T01:12:41.985Z,12.43
2018-09-03T01:15:10.490Z,13.10
2018-09-03T01:17:38.993Z,12.50
2018-09-03T01:20:07.631Z,12.80
2018-09-03T01:22:36.256Z,12.87
2018-09-03T01:25:04.781Z,12.77
2018-09-03T01:27:33.249Z,13.63
2018-09-03T01:30:01.800Z,13.40
2018-09-03T01:32:30.329Z,13.07
2018-09-03T01:34:58.837Z,12.87
2018-09-03T01:37:27.357Z,13.07
2018-09-03T01:39:56.096Z,12.07
2018-09-03T01:42:24.713Z,14.33
2018-09-03T01:44:53.190Z,12.43
2018-09-03T01:47:21.665Z,12.70
2018-09-03T01:49:50.261Z,13.50
2018-09-03T01:52:19.176Z,13.17
2018-09-03T01:54:47.656Z,12.83
2018-09-03T01:57:16.137Z,14.30
2018-09-03T01:59:44.650Z,13.33
2018-09-03T02:02:13.164Z,15.40
2018-09-03T02:04:41.716Z,14.17
2018-09-03T02:07:10.214Z,13.90
2018-09-03T02:09:38.666Z,14.40
2018-09-03T02:12:11.532Z,14.27
2018-09-03T02:14:40.579Z,15.20
2018-09-03T02:17:09.970Z,15.50
2018-09-03T02:19:38.575Z,15.73
2018-09-03T02:22:07.475Z,15.70
2018-09-03T02:24:36.237Z,15.63
2018-09-03T02:27:04.758Z,16.87
2018-09-03T02:29:33.299Z,17.93
2018-09-03T02:32:02.144Z,16.87
2018-09-03T02:34:30.644Z,16.20
2018-09-03T02:36:59.162Z,16.30
2018-09-03T02:39:27.671Z,16.63
2018-09-03T02:41:56.342Z,17.30
2018-09-03T02:44:24.865Z,18.13
2018-09-03T02:46:53.351Z,20.70
2018-09-03T02:49:21.854Z,18.17
2018-09-03T02:51:50.440Z,18.33
2018-09-03T02:54:18.925Z,19.20
2018-09-03T02:56:47.473Z,18.93
2018-09-03T02:59:15.974Z,19.23
2018-09-03T03:01:44.538Z,18.67
2018-09-03T03:04:13.170Z,20.00
2018-09-03T03:06:41.850Z,17.80
2018-09-03T03:09:10.529Z,18.37
2018-09-03T03:11:39.735Z,19.53
2018-09-03T03:14:08.352Z,19.53
2018-09-03T03:16:36.870Z,18.53
2018-09-03T03:19:05.570Z,19.43
2018-09-03T03:21:34.191Z,20.50
2018-09-03T03:24:02.697Z,20.60
2018-09-03T03:26:31.278Z,20.60
2018-09-03T03:28:59.854Z,18.57
2018-09-03T03:31:28.458Z,20.30
2018-09-03T03:33:57.116Z,18.50
2018-09-03T03:36:25.777Z,19.90
2018-09-03T03:38:54.422Z,18.93
2018-09-03T03:41:22.961Z,19.00
2018-09-03T03:43:51.428Z,20.83
2018-09-03T03:46:19.969Z,19.53
2018-09-03T03:48:48.474Z,19.93
2018-09-03T03:51:17.384Z,20.30
2018-09-03T03:53:45.954Z,19.57
2018-09-03T03:56:14.413Z,20.50
2018-09-03T03:58:42.950Z,20.73
2018-09-03T04:01:11.454Z,18.57
2018-09-03T04:03:39.940Z,20.30
2018-09-03T04:06:08.757Z,19.90
2018-09-03T04:08:37.266Z,20.10
2018-09-03T04:11:06.613Z,18.93
2018-09-03T04:13:35.154Z,20.37
2018-09-03T04:16:03.671Z,20.70
2018-09-03T04:18:32.161Z,20.20
2018-09-03T04:21:00.694Z,19.83
2018-09-03T04:23:29.437Z,20.30
2018-09-03T04:25:57.797Z,19.40
2018-09-03T04:28:26.301Z,20.10
2018-09-03T04:30:54.786Z,21.80
2018-09-03T04:33:23.521Z,19.87
2018-09-03T04:35:52.122Z,21.47
2018-09-03T04:38:21.042Z,21.17
2018-09-03T04:40:49.560Z,20.27
2018-09-03T04:43:18.095Z,21.80
2018-09-03T04:45:46.586Z,21.57
2018-09-03T04:48:15.121Z,19.73
2018-09-03T04:50:43.636Z,20.73
2018-09-03T04:53:12.207Z,21.63
2018-09-03T04:55:40.763Z,21.80
2018-09-03T04:58:09.250Z,20.00
2018-09-03T05:00:37.807Z,20.93
2018-09-03T05:03:06.445Z,20.90
2018-09-03T05:05:35.062Z,21.00
2018-09-03T05:08:03.635Z,20.10
2018-09-03T05:10:32.933Z,19.63
2018-09-03T05:13:01.492Z,20.90
2018-09-03T05:15:30.086Z,20.10
2018-09-03T05:17:58.953Z,19.93
2018-09-03T05:20:27.547Z,18.87
2018-09-03T05:22:56.811Z,19.10
2018-09-03T05:25:25.374Z,18.47
2018-09-03T05:27:53.888Z,18.50
2018-09-03T05:30:22.397Z,20.17
2018-09-03T05:32:50.913Z,19.10
2018-09-03T05:35:19.486Z,18.30
2018-09-03T05:37:48.005Z,17.90
2018-09-03T05:40:16.489Z,19.13
2018-09-03T05:42:45.404Z,19.43
2018-09-03T05:45:13.868Z,18.67
2018-09-03T05:47:42.430Z,17.30
2018-09-03T05:50:11.422Z,17.33
2018-09-03T05:52:39.906Z,20.10
2018-09-03T05:55:08.431Z,16.67
2018-09-03T05:57:36.980Z,18.83
2018-09-03T06:00:06.402Z,19.43
2018-09-03T06:02:34.902Z,18.50
2018-09-03T06:05:03.438Z,18.60
2018-09-03T06:07:40.062Z,17.47
2018-09-03T06:10:08.584Z,19.10
2018-09-03T06:12:37.279Z,17.93
2018-09-03T06:15:06.026Z,16.60
2018-09-03T06:17:34.557Z,17.20
2018-09-03T06:20:03.051Z,17.40
2018-09-03T06:22:31.565Z,18.10
2018-09-03T06:25:00.044Z,17.93
2018-09-03T06:27:28.555Z,18.13
2018-09-03T06:29:57.100Z,17.67
2018-09-03T06:32:25.823Z,17.47
2018-09-03T06:34:54.661Z,18.03
2018-09-03T06:37:24.042Z,19.77
2018-09-03T06:39:52.573Z,16.80
2018-09-03T06:42:21.219Z,18.00
2018-09-03T06:44:49.784Z,18.60
2018-09-03T06:47:18.330Z,17.50
2018-09-03T06:49:46.923Z,18.73
2018-09-03T06:52:15.452Z,18.20
2018-09-03T06:54:44.081Z,16.33
2018-09-03T06:57:12.565Z,17.87
2018-09-03T06:59:41.132Z,15.83
2018-09-03T07:02:09.692Z,17.83
2018-09-03T07:04:38.197Z,17.73
2018-09-03T07:07:07.198Z,17.87
2018-09-03T07:09:35.794Z,16.50
2018-09-03T07:12:04.322Z,13.63
2018-09-03T07:14:32.854Z,16.93
2018-09-03T07:17:01.402Z,16.93
2018-09-03T07:19:29.887Z,18.57
2018-09-03T07:21:58.443Z,15.83
2018-09-03T07:24:26.933Z,17.27
2018-09-03T07:26:55.558Z,16.00
2018-09-03T07:29:24.105Z,16.30
2018-09-03T07:31:52.594Z,16.30
2018-09-03T07:34:22.037Z,17.60
2018-09-03T07:36:50.580Z,16.33
2018-09-03T07:39:19.078Z,16.23
2018-09-03T07:41:47.600Z,18.50
2018-09-03T07:44:16.127Z,17.47
2018-09-03T07:46:44.634Z,17.97
2018-09-03T07:49:13.703Z,12.70
2018-09-03T07:51:42.206Z,16.60
2018-09-03T07:54:10.692Z,15.93
2018-09-03T07:56:39.289Z,15.30
2018-09-03T07:59:07.761Z,15.23
2018-09-03T08:01:36.277Z,16.20
2018-09-03T08:04:04.819Z,17.50
2018-09-03T08:06:33.489Z,17.07
2018-09-03T08:09:02.246Z,13.83
2018-09-03T08:11:30.755Z,15.33
2018-09-03T08:13:59.284Z,16.10
2018-09-03T08:16:27.833Z,16.87
2018-09-03T08:18:56.446Z,14.80
2018-09-03T08:21:24.933Z,15.60
2018-09-03T08:23:53.522Z,15.60
2018-09-03T08:26:22.051Z,16.10
2018-09-03T08:28:50.549Z,16.53
2018-09-03T08:31:19.095Z,16.37
2018-09-03T08:33:47.579Z,17.50
2018-09-03T08:36:16.112Z,15.13
2018-09-03T08:38:44.803Z,15.03
2018-09-03T08:41:13.313Z,15.53
2018-09-03T08:43:41.865Z,17.50
2018-09-03T08:46:10.424Z,16.37
2018-09-03T08:48:38.921Z,17.60
2018-09-03T08:51:07.454Z,15.60
2018-09-03T08:53:36.316Z,17.00
2018-09-03T08:56:04.958Z,16.60
2018-09-03T08:58:33.486Z,16.93
2018-09-03T09:01:02.083Z,15.43
2018-09-03T09:03:35.938Z,14.43
2018-09-03T09:06:04.654Z,17.13
2018-09-03T09:08:33.150Z,14.70
2018-09-03T09:11:01.634Z,15.23
2018-09-03T09:13:30.545Z,15.10
2018-09-03T09:15:59.123Z,15.50
2018-09-03T09:18:27.645Z,14.83
2018-09-03T09:20:56.150Z,15.00
2018-09-03T09:23:24.694Z,14.40
2018-09-03T09:25:53.209Z,18.93
2018-09-03T09:28:21.789Z,20.30
2018-09-03T09:30:50.394Z,24.67
2018-09-03T09:33:18.926Z,25.73
2018-09-03T09:35:47.465Z,30.07
2018-09-03T09:38:15.973Z,28.10
2018-09-03T09:40:44.478Z,22.37
2018-09-03T09:43:13.041Z,23.57
2018-09-03T09:45:41.922Z,18.10
2018-09-03T09:48:10.464Z,17.07
2018-09-03T09:50:39.129Z,16.03
2018-09-03T09:53:07.698Z,15.20
2018-09-03T09:55:36.246Z,14.07
2018-09-03T09:58:04.799Z,13.63
2018-09-03T10:00:38.474Z,13.63
2018-09-03T10:03:07.046Z,13.17
2018-09-03T10:05:35.574Z,12.80
2018-09-03T10:08:04.131Z,13.27
2018-09-03T10:10:32.700Z,14.07
2018-09-03T10:13:01.193Z,14.30
2018-09-03T10:15:29.718Z,14.37
2018-09-03T10:17:58.211Z,12.33
2018-09-03T10:20:26.701Z,13.83
2018-09-03T10:22:55.237Z,13.00
2018-09-03T10:25:23.904Z,12.67
2018-09-03T10:27:52.429Z,14.10
2018-09-03T10:30:21.003Z,13.63
2018-09-03T10:32:49.585Z,13.60
2018-09-03T10:35:19.296Z,13.60
2018-09-03T10:37:47.808Z,14.10
2018-09-03T10:40:16.494Z,13.67
2018-09-03T10:42:44.983Z,14.10
2018-09-03T10:45:13.549Z,13.00
2018-09-03T10:47:42.140Z,13.63
2018-09-03T10:50:10.587Z,13.20
2018-09-03T10:52:39.102Z,14.13
2018-09-03T10:55:08.233Z,12.67
2018-09-03T10:57:36.813Z,12.80
2018-09-03T11:00:05.852Z,12.40
2018-09-03T11:02:34.728Z,12.70
2018-09-03T11:05:03.321Z,13.17
2018-09-03T11:07:31.860Z,12.17
2018-09-03T11:10:00.359Z,11.83
2018-09-03T11:12:28.927Z,11.90
2018-09-03T11:14:57.430Z,12.97
2018-09-03T11:17:26.036Z,10.80
2018-09-03T11:19:57.835Z,12.77
2018-09-03T11:22:27.391Z,10.83
2018-09-03T11:24:56.117Z,13.00
2018-09-03T11:27:24.655Z,11.00
2018-09-03T11:29:53.543Z,12.70
2018-09-03T11:32:22.091Z,12.60
2018-09-03T11:34:50.611Z,12.70
2018-09-03T11:37:19.487Z,11.27
2018-09-03T11:39:48.014Z,11.67
2018-09-03T11:42:16.493Z,11.27
2018-09-03T11:44:45.046Z,11.50
2018-09-03T11:47:13.593Z,11.33
2018-09-03T11:49:42.163Z,11.43
2018-09-03T11:52:10.666Z,11.10
2018-09-03T11:54:40.171Z,11.67
2018-09-03T11:57:08.739Z,12.80
2018-09-03T11:59:37.225Z,12.57
2018-09-03T12:02:06.546Z,12.13
2018-09-03T12:04:35.063Z,12.03
2018-09-03T12:07:03.634Z,12.87
2018-09-03T12:09:32.236Z,12.40
2018-09-03T12:12:00.732Z,13.00
2018-09-03T12:14:31.678Z,13.17
2018-09-03T12:17:00.539Z,12.93
2018-09-03T12:19:29.437Z,13.27
2018-09-03T12:21:57.941Z,13.70
2018-09-03T12:24:26.434Z,14.33
2018-09-03T12:26:54.953Z,13.97
2018-09-03T12:29:23.488Z,14.90
2018-09-03T12:31:52.119Z,15.43
2018-09-03T12:34:20.640Z,15.10
2018-09-03T12:36:49.189Z,15.67
2018-09-03T12:39:17.872Z,15.83
2018-09-03T12:41:46.497Z,14.87
2018-09-03T12:44:15.062Z,14.63
2018-09-03T12:46:43.716Z,14.57
2018-09-03T12:49:12.252Z,17.20
2018-09-03T12:51:40.910Z,14.67
2018-09-03T12:54:09.463Z,15.07
2018-09-03T12:56:37.999Z,15.83
2018-09-03T12:59:06.603Z,17.63
2018-09-03T13:01:35.291Z,18.23
2018-09-03T13:04:03.934Z,17.07
2018-09-03T13:06:32.802Z,19.07
2018-09-03T13:09:01.323Z,21.07
2018-09-03T13:11:29.829Z,19.63
2018-09-03T13:13:58.347Z,18.80
2018-09-03T13:16:26.927Z,20.20
2018-09-03T13:18:55.506Z,19.90
2018-09-03T13:21:24.026Z,18.93
2018-09-03T13:23:52.670Z,18.03
2018-09-03T13:26:21.226Z,20.50
2018-09-03T13:28:49.749Z,21.20
2018-09-03T13:31:18.310Z,20.47
2018-09-03T13:33:46.970Z,19.57
2018-09-03T13:36:15.572Z,22.03
2018-09-03T13:38:44.025Z,21.33
2018-09-03T13:41:12.583Z,20.90
2018-09-03T13:43:41.106Z,20.07
2018-09-03T13:46:09.700Z,19.43
2018-09-03T13:48:38.329Z,20.97
2018-09-03T13:51:06.480Z,20.73
2018-09-03T13:53:35.065Z,19.40
2018-09-03T13:56:03.596Z,20.40
2018-09-03T13:58:32.117Z,19.40
2018-09-03T14:01:00.735Z,21.23
2018-09-03T14:03:29.244Z,20.87
2018-09-03T14:05:58.223Z,20.30
2018-09-03T14:08:26.709Z,20.50
2018-09-03T14:10:55.232Z,20.63
2018-09-03T14:13:23.819Z,19.47
2018-09-03T14:15:52.375Z,19.33
2018-09-03T14:18:20.937Z,18.70
2018-09-03T14:20:49.589Z,19.60
2018-09-03T14:23:18.186Z,20.47
2018-09-03T14:25:46.685Z,20.07
2018-09-03T14:28:15.781Z,19.30
2018-09-03T14:30:44.398Z,18.20
2018-09-03T14:33:13.190Z,18.57
2018-09-03T14:35:41.690Z,20.33
2018-09-03T14:38:10.210Z,19.10
2018-09-03T14:40:38.805Z,18.57
2018-09-03T14:43:07.861Z,19.30
2018-09-03T14:45:36.389Z,17.53
2018-09-03T14:48:05.071Z,17.47
2018-09-03T14:50:33.611Z,18.60
2018-09-03T14:53:02.139Z,18.10
2018-09-03T14:55:30.671Z,18.13
2018-09-03T14:57:59.231Z,19.00
2018-09-03T15:00:28.186Z,19.43
2018-09-03T15:02:57.364Z,19.23
2018-09-03T15:05:25.893Z,18.13
2018-09-03T15:07:54.502Z,18.47
2018-09-03T15:10:23.659Z,18.00
2018-09-03T15:12:52.616Z,19.03
2018-09-03T15:15:21.150Z,19.37
2018-09-03T15:17:49.644Z,18.90
2018-09-03T15:20:18.174Z,20.07
2018-09-03T15:22:47.489Z,18.53
2018-09-03T15:25:16.027Z,18.40
2018-09-03T15:27:44.560Z,18.80
2018-09-03T15:30:13.173Z,20.27
2018-09-03T15:32:41.759Z,18.47
2018-09-03T15:35:10.352Z,20.23
2018-09-03T15:37:39.805Z,19.70
2018-09-03T15:40:08.347Z,20.10
2018-09-03T15:42:36.894Z,18.00
2018-09-03T15:45:05.520Z,17.77
2018-09-03T15:47:34.507Z,19.33
2018-09-03T15:50:03.027Z,19.63
2018-09-03T15:52:31.568Z,19.30
2018-09-03T15:55:00.938Z,20.93
2018-09-03T15:57:29.490Z,19.03
2018-09-03T15:59:58.397Z,18.87
2018-09-03T16:02:26.926Z,19.77
2018-09-03T16:04:55.459Z,20.23
2018-09-03T16:07:24.010Z,20.53
2018-09-03T16:09:52.542Z,19.63
2018-09-03T16:12:21.107Z,18.77
2018-09-03T16:14:49.604Z,19.27
2018-09-03T16:17:18.196Z,19.63
2018-09-03T16:19:46.715Z,19.63
2018-09-03T16:22:15.268Z,19.87
2018-09-03T16:24:43.839Z,20.73
2018-09-03T16:27:12.452Z,18.27
2018-09-03T16:29:40.959Z,18.70
2018-09-03T16:32:09.831Z,19.57
2018-09-03T16:34:38.594Z,19.67
2018-09-03T16:37:07.353Z,18.43
2018-09-03T16:39:35.922Z,19.07
2018-09-03T16:42:04.532Z,19.00
2018-09-03T16:44:33.168Z,19.10
2018-09-03T16:47:01.707Z,19.03
2018-09-03T16:49:30.258Z,19.93
2018-09-03T16:51:58.821Z,19.10
2018-09-03T16:54:27.377Z,19.67
2018-09-03T16:56:55.882Z,19.70
2018-09-03T16:59:24.489Z,20.00
2018-09-03T17:01:52.990Z,18.13
2018-09-03T17:04:21.571Z,18.43
2018-09-03T17:06:50.124Z,19.00
2018-09-03T17:09:18.707Z,19.57
2018-09-03T17:11:47.199Z,18.60
2018-09-03T17:14:15.763Z,20.90
2018-09-03T17:16:44.435Z,18.80
2018-09-03T17:19:13.041Z,18.37
2018-09-03T17:21:41.522Z,18.80
2018-09-03T17:24:10.089Z,18.70
2018-09-03T17:26:38.656Z,16.77
2018-09-03T17:29:07.227Z,18.60
2018-09-03T17:31:35.711Z,17.60
2018-09-03T17:34:04.216Z,18.63
2018-09-03T17:36:32.776Z,16.23
2018-09-03T17:39:01.346Z,17.33
2018-09-03T17:41:29.867Z,17.30
2018-09-03T17:43:58.395Z,18.20
2018-09-03T17:46:26.889Z,17.80
2018-09-03T17:48:55.450Z,18.10
2018-09-03T17:51:23.943Z,16.70
2018-09-03T17:53:52.511Z,18.07
2018-09-03T17:56:21.023Z,17.57
2018-09-03T17:58:49.574Z,19.07
2018-09-03T18:01:18.457Z,18.07
2018-09-03T18:03:47.032Z,17.63
2018-09-03T18:06:15.625Z,17.67
2018-09-03T18:08:44.302Z,16.80
2018-09-03T18:11:12.851Z,16.63
2018-09-03T18:13:41.345Z,18.93
2018-09-03T18:16:09.895Z,17.40
2018-09-03T18:18:38.505Z,18.90
2018-09-03T18:21:07.058Z,18.43
2018-09-03T18:23:34.745Z,20.83
2018-09-03T18:26:03.265Z,19.10
2018-09-03T18:28:31.758Z,19.60
2018-09-03T18:31:00.283Z,18.53
2018-09-03T18:33:28.835Z,19.17
2018-09-03T18:35:57.408Z,19.47
2018-09-03T18:38:25.914Z,19.17
2018-09-03T18:40:54.404Z,19.00
2018-09-03T18:43:23.011Z,19.63
2018-09-03T18:45:51.608Z,19.60
2018-09-03T18:48:20.151Z,19.73
2018-09-03T18:50:48.630Z,20.60
2018-09-03T18:53:17.146Z,19.40
2018-09-03T18:55:45.698Z,20.27
2018-09-03T18:58:14.245Z,19.43
2018-09-03T19:00:42.848Z,19.87
2018-09-03T19:03:11.375Z,19.90
2018-09-03T19:05:39.946Z,20.43
2018-09-03T19:08:08.451Z,18.97
2018-09-03T19:10:36.961Z,20.13
2018-09-03T19:13:05.475Z,20.23
2018-09-03T19:15:33.998Z,21.10
2018-09-03T19:18:02.561Z,21.30
2018-09-03T19:20:31.045Z,22.30
2018-09-03T19:22:59.583Z,23.50
2018-09-03T19:25:28.162Z,21.93
2018-09-03T19:27:56.642Z,21.13
2018-09-03T19:30:25.183Z,23.13
2018-09-03T19:32:53.743Z,22.87
2018-09-03T19:35:22.717Z,21.70
2018-09-03T19:37:51.250Z,21.97
2018-09-03T19:40:19.776Z,23.20
2018-09-03T19:42:48.297Z,22.70
2018-09-03T19:45:16.842Z,22.70
2018-09-03T19:47:45.342Z,22.50
2018-09-03T19:50:13.934Z,22.33
2018-09-03T19:52:42.795Z,22.00
2018-09-03T19:55:11.286Z,24.13
2018-09-03T19:57:39.749Z,24.13
2018-09-03T20:00:08.297Z,24.57
2018-09-03T20:02:36.812Z,25.07
2018-09-03T20:05:05.349Z,26.67
2018-09-03T20:07:33.934Z,24.23
2018-09-03T20:10:02.475Z,25.17
2018-09-03T20:12:31.362Z,25.87
2018-09-03T20:14:59.909Z,26.80
2018-09-03T20:17:28.410Z,29.23
2018-09-03T20:19:57.018Z,28.20
2018-09-03T20:22:25.545Z,27.60
2018-09-03T20:24:54.138Z,24.73
2018-09-03T20:27:22.641Z,25.73
2018-09-03T20:29:51.177Z,26.63
2018-09-03T20:32:19.685Z,25.73
2018-09-03T20:34:48.194Z,27.37
2018-09-03T20:37:17.058Z,27.43
2018-09-03T20:39:45.563Z,27.50
2018-09-03T20:42:14.090Z,28.27
2018-09-03T20:44:42.708Z,26.87
2018-09-03T20:47:11.147Z,25.40
2018-09-03T20:49:39.756Z,25.23
2018-09-03T20:52:08.254Z,24.67
2018-09-03T20:54:36.793Z,26.37
2018-09-03T20:57:05.362Z,25.37
2018-09-03T20:59:34.247Z,24.93
2018-09-03T21:02:02.771Z,27.20
2018-09-03T21:04:31.350Z,24.23
2018-09-03T21:06:59.958Z,25.43
2018-09-03T21:09:28.629Z,26.00
2018-09-03T21:11:57.190Z,26.80
2018-09-03T21:14:25.708Z,26.53
2018-09-03T21:16:54.251Z,27.43
2018-09-03T21:19:22.770Z,27.30
2018-09-03T21:21:51.356Z,28.13
2018-09-03T21:24:20.633Z,28.70
2018-09-03T21:26:49.133Z,29.50
2018-09-03T21:29:17.742Z,28.87
2018-09-03T21:31:46.275Z,27.90
2018-09-03T21:34:14.789Z,28.97
2018-09-03T21:36:43.463Z,27.70
2018-09-03T21:39:12.122Z,27.67
2018-09-03T21:41:40.622Z,28.50
2018-09-03T21:44:09.102Z,27.53
2018-09-03T21:46:37.685Z,28.10
2018-09-03T21:49:06.248Z,29.73
2018-09-03T21:51:34.750Z,29.77
2018-09-03T21:54:03.269Z,29.30
2018-09-03T21:56:31.753Z,30.73
2018-09-03T21:59:00.335Z,28.70
2018-09-03T22:01:28.842Z,30.77
2018-09-03T22:03:57.406Z,31.60
2018-09-03T22:06:25.930Z,32.60
2018-09-03T22:08:54.454Z,30.27
2018-09-03T22:11:23.331Z,31.90
2018-09-03T22:13:51.825Z,31.17
2018-09-03T22:16:20.376Z,32.17
2018-09-03T22:18:48.925Z,33.10
2018-09-03T22:21:17.458Z,33.03
2018-09-03T22:23:46.518Z,31.00
2018-09-03T22:26:15.137Z,33.67
2018-09-03T22:28:43.653Z,33.87
2018-09-03T22:31:12.613Z,32.70
2018-09-03T22:33:41.200Z,32.47
2018-09-03T22:36:09.689Z,32.20
2018-09-03T22:38:38.234Z,35.77
2018-09-03T22:41:07.206Z,32.87
2018-09-03T22:43:35.787Z,32.93
2018-09-03T22:46:04.350Z,35.30
2018-09-03T22:48:32.857Z,34.73
2018-09-03T22:51:01.362Z,35.20
2018-09-03T22:53:29.989Z,34.97
2018-09-03T22:55:58.502Z,33.90
2018-09-03T22:58:27.037Z,34.80
2018-09-03T23:00:56.488Z,34.20
2018-09-03T23:03:24.989Z,33.70
2018-09-03T23:05:53.498Z,34.70
2018-09-03T23:08:22.018Z,33.60
2018-09-03T23:10:50.535Z,34.87
2018-09-03T23:13:19.057Z,36.83
2018-09-03T23:15:52.175Z,39.87
2018-09-03T23:18:21.750Z,40.47
2018-09-03T23:20:50.240Z,41.43
2018-09-03T23:23:18.838Z,40.00
2018-09-03T23:25:47.843Z,40.80
2018-09-03T23:28:16.413Z,42.93
2018-09-03T23:30:45.006Z,43.37
2018-09-03T23:33:13.518Z,44.57
2018-09-03T23:35:41.965Z,45.50
2018-09-03T23:38:10.457Z,47.30
2018-09-03T23:40:38.993Z,46.73
2018-09-03T23:43:07.537Z,46.70
2018-09-03T23:45:36.066Z,44.73
2018-09-03T23:48:04.676Z,43.70
2018-09-03T23:50:33.172Z,43.90
2018-09-03T23:53:01.745Z,46.80
2018-09-03T23:55:30.256Z,50.73
2018-09-03T23:57:58.765Z,47.97
